Terminal Aerodrome Forecast
Issued by NWS

Home | Current Version | Previous Version | Text Only | Print | Product List | Glossary On
Versions: 1 2 3 4 5 6 7 8 9 10 11
000
FTUS46 KLOX 271700
TAFVNY
TAF
KVNY 271739Z 2718/2818 VRB05KT P6SM OVC025
     FM272100 17008KT P6SM SCT030
     FM280300 VRB04KT P6SM BKN025 BKN080
     FM281400 27004KT 6SM BR VCSH BKN025 OVC050=

USA.gov is the U.S. government's official web portal to all federal, state and local government web resources and services.